createdAt,value
2019-05-07T00:01:24.219Z,55.70
2019-05-07T00:03:53.055Z,55.80
2019-05-07T00:06:23.051Z,55.70
2019-05-07T00:08:52.451Z,55.80
2019-05-07T00:11:22.371Z,55.80
2019-05-07T00:13:52.249Z,55.90
2019-05-07T00:16:22.453Z,55.80
2019-05-07T00:18:52.562Z,55.90
2019-05-07T00:21:23.374Z,55.80
2019-05-07T00:23:52.749Z,55.80
2019-05-07T00:26:22.592Z,55.70
2019-05-07T00:28:52.657Z,55.70
2019-05-07T00:31:23.225Z,55.70
2019-05-07T00:33:52.664Z,55.70
2019-05-07T00:36:49.421Z,55.60
2019-05-07T00:39:43.447Z,55.60
2019-05-07T00:42:26.743Z,55.60
2019-05-07T00:45:14.241Z,55.50
2019-05-07T00:47:32.961Z,55.50
2019-05-07T00:50:06.219Z,55.40
2019-05-07T00:52:34.908Z,55.40
2019-05-07T00:55:03.684Z,55.30
2019-05-07T00:57:32.500Z,55.20
2019-05-07T01:00:02.172Z,55.20
2019-05-07T01:02:32.343Z,55.10
2019-05-07T01:05:02.974Z,55.10
2019-05-07T01:07:32.904Z,54.90
2019-05-07T01:10:02.329Z,54.80
2019-05-07T01:12:32.810Z,54.80
2019-05-07T01:15:02.931Z,54.70
2019-05-07T01:17:33.526Z,54.60
2019-05-07T01:20:03.036Z,54.50
2019-05-07T01:22:33.015Z,54.50
2019-05-07T01:25:02.610Z,54.40
2019-05-07T01:27:32.117Z,54.30
2019-05-07T01:30:02.581Z,54.30
2019-05-07T01:32:49.723Z,54.20
2019-05-07T01:35:24.391Z,54.20
2019-05-07T01:37:53.059Z,54.30
2019-05-07T01:40:22.797Z,54.30
2019-05-07T01:42:52.978Z,54.30
2019-05-07T01:45:25.035Z,54.30
2019-05-07T01:47:53.196Z,54.40
2019-05-07T01:50:22.842Z,54.40
2019-05-07T01:52:52.434Z,54.30
2019-05-07T01:55:22.546Z,54.30
2019-05-07T01:57:52.315Z,54.30
2019-05-07T02:00:22.424Z,54.30
2019-05-07T02:03:00.356Z,54.30
2019-05-07T02:05:45.440Z,54.20
2019-05-07T02:08:19.460Z,54.20
2019-05-07T02:11:02.519Z,54.20
2019-05-07T02:13:31.199Z,54.10
2019-05-07T02:16:01.870Z,54.10
2019-05-07T02:18:32.449Z,54.10
2019-05-07T02:21:03.221Z,54.10
2019-05-07T02:23:33.070Z,54.10
2019-05-07T02:26:02.531Z,54.00
2019-05-07T02:28:32.914Z,54.00
2019-05-07T02:31:04.051Z,54.00
2019-05-07T02:33:34.902Z,54.00
2019-05-07T02:36:03.168Z,53.90
2019-05-07T02:38:44.210Z,53.90
2019-05-07T02:41:19.472Z,53.90
2019-05-07T02:43:48.236Z,53.90
2019-05-07T02:46:31.110Z,53.90
2019-05-07T02:49:06.407Z,53.90
2019-05-07T02:51:43.876Z,53.90
2019-05-07T02:54:26.923Z,53.80
2019-05-07T02:56:55.612Z,53.70
2019-05-07T02:59:24.269Z,53.60
2019-05-07T03:01:53.759Z,53.60
2019-05-07T03:04:24.969Z,53.50
2019-05-07T03:06:54.427Z,53.50
2019-05-07T03:09:23.976Z,53.60
2019-05-07T03:11:53.116Z,53.60
2019-05-07T03:14:23.349Z,53.50
2019-05-07T03:16:53.521Z,53.40
2019-05-07T03:19:24.263Z,53.40
2019-05-07T03:21:54.659Z,53.40
2019-05-07T03:24:43.504Z,53.40
2019-05-07T03:27:14.307Z,53.40
2019-05-07T03:29:46.166Z,53.40
2019-05-07T03:32:38.304Z,53.40
2019-05-07T03:35:27.313Z,53.40
2019-05-07T03:37:55.857Z,53.40
2019-05-07T03:40:24.518Z,53.30
2019-05-07T03:42:53.738Z,53.30
2019-05-07T03:45:35.813Z,53.20
2019-05-07T03:48:18.091Z,53.20
2019-05-07T03:50:46.786Z,53.20
2019-05-07T03:53:15.485Z,53.20
2019-05-07T03:55:44.856Z,53.10
2019-05-07T03:58:14.776Z,53.00
2019-05-07T04:00:45.012Z,52.90
2019-05-07T04:03:18.771Z,52.90
2019-05-07T04:05:44.093Z,52.90
2019-05-07T04:08:13.388Z,52.80
2019-05-07T04:10:44.305Z,52.80
2019-05-07T04:13:13.796Z,52.90
2019-05-07T04:15:44.107Z,52.80
2019-05-07T04:18:13.524Z,52.80
2019-05-07T04:20:43.535Z,52.80
2019-05-07T04:23:13.737Z,52.80
2019-05-07T04:26:04.339Z,52.80
2019-05-07T04:28:55.003Z,52.80
2019-05-07T04:31:25.542Z,52.80
2019-05-07T04:33:56.595Z,52.80
2019-05-07T04:36:44.351Z,52.70
2019-05-07T04:39:13.505Z,52.70
2019-05-07T04:41:43.386Z,52.70
2019-05-07T04:44:14.085Z,52.70
2019-05-07T04:46:47.562Z,52.70
2019-05-07T04:49:13.505Z,52.60
2019-05-07T04:51:47.917Z,52.60
2019-05-07T04:54:16.679Z,52.60
2019-05-07T04:56:45.397Z,52.60
2019-05-07T04:59:14.066Z,52.60
2019-05-07T05:01:48.160Z,52.50
2019-05-07T05:04:26.884Z,52.50
2019-05-07T05:06:47.225Z,52.40
2019-05-07T05:09:15.930Z,52.40
2019-05-07T05:11:44.658Z,52.30
2019-05-07T05:14:13.817Z,52.20
2019-05-07T05:16:42.983Z,52.20
2019-05-07T05:19:12.584Z,52.10
2019-05-07T05:22:06.929Z,52.10
2019-05-07T05:24:42.825Z,52.00
2019-05-07T05:27:12.200Z,52.00
2019-05-07T05:29:42.954Z,51.90
2019-05-07T05:32:12.045Z,51.90
2019-05-07T05:34:42.594Z,51.90
2019-05-07T05:37:11.929Z,51.90
2019-05-07T05:39:42.720Z,51.90
2019-05-07T05:42:27.336Z,51.90
2019-05-07T05:44:56.545Z,51.80
2019-05-07T05:47:25.224Z,51.80
2019-05-07T05:49:53.876Z,51.70
2019-05-07T05:52:33.747Z,51.60
2019-05-07T05:55:12.035Z,51.50
2019-05-07T05:58:05.747Z,51.50
2019-05-07T06:01:05.378Z,51.50
2019-05-07T06:03:56.980Z,51.40
2019-05-07T06:06:39.097Z,51.40
2019-05-07T06:09:25.930Z,51.40
2019-05-07T06:12:25.926Z,52.10
2019-05-07T06:14:58.296Z,51.40
2019-05-07T06:17:42.502Z,51.40
2019-05-07T06:20:28.489Z,51.40
2019-05-07T06:23:18.585Z,51.40
2019-05-07T06:25:47.914Z,51.50
2019-05-07T06:28:16.574Z,51.40
2019-05-07T06:30:45.266Z,51.40
2019-05-07T06:33:13.928Z,51.40
2019-05-07T06:35:43.039Z,51.40
2019-05-07T06:38:13.507Z,51.40
2019-05-07T06:40:59.819Z,51.40
2019-05-07T06:43:33.511Z,51.40
2019-05-07T06:46:02.424Z,51.40
2019-05-07T06:48:41.810Z,51.40
2019-05-07T06:51:03.064Z,51.40
2019-05-07T06:53:33.774Z,51.50
2019-05-07T06:56:03.084Z,51.40
2019-05-07T06:58:41.915Z,51.40
2019-05-07T07:01:28.274Z,51.60
2019-05-07T07:04:16.432Z,52.00
2019-05-07T07:07:06.795Z,52.10
2019-05-07T07:09:42.419Z,52.10
2019-05-07T07:12:15.201Z,52.00
2019-05-07T07:14:43.839Z,52.00
2019-05-07T07:17:13.017Z,52.00
2019-05-07T07:19:42.882Z,52.00
2019-05-07T07:22:12.965Z,51.90
2019-05-07T07:24:42.493Z,51.90
2019-05-07T07:27:13.174Z,51.90
2019-05-07T07:29:47.517Z,51.80
2019-05-07T07:32:18.203Z,51.80
2019-05-07T07:34:49.332Z,51.70
2019-05-07T07:37:24.776Z,51.70
2019-05-07T07:40:12.869Z,51.60
2019-05-07T07:42:42.662Z,51.60
2019-05-07T07:45:16.494Z,51.50
2019-05-07T07:47:45.699Z,51.50
2019-05-07T07:50:14.829Z,51.40
2019-05-07T07:52:43.508Z,51.40
2019-05-07T07:55:12.883Z,51.40
2019-05-07T07:57:51.997Z,51.40
2019-05-07T08:00:40.074Z,51.30
2019-05-07T08:03:10.486Z,51.30
2019-05-07T08:05:39.135Z,51.30
2019-05-07T08:08:07.831Z,51.30
2019-05-07T08:10:36.553Z,51.20
2019-05-07T08:13:05.232Z,51.20
2019-05-07T08:15:33.892Z,51.10
2019-05-07T08:18:02.973Z,51.10
2019-05-07T08:20:32.660Z,51.10
2019-05-07T08:23:02.938Z,51.00
2019-05-07T08:25:52.591Z,51.00
2019-05-07T08:28:22.798Z,51.00
2019-05-07T08:31:02.995Z,50.90
2019-05-07T08:33:35.627Z,50.90
2019-05-07T08:36:14.720Z,50.90
2019-05-07T08:38:52.441Z,50.90
2019-05-07T08:41:22.348Z,50.90
2019-05-07T08:43:52.420Z,50.80
2019-05-07T08:46:43.127Z,50.80
2019-05-07T08:49:12.197Z,50.70
2019-05-07T08:51:42.632Z,50.70
2019-05-07T08:54:12.324Z,50.70
2019-05-07T08:56:42.552Z,50.70
2019-05-07T08:59:12.383Z,50.70
2019-05-07T09:01:43.503Z,50.60
2019-05-07T09:04:13.462Z,50.60
2019-05-07T09:06:43.060Z,50.60
2019-05-07T09:09:13.864Z,50.60
2019-05-07T09:11:42.727Z,50.60
2019-05-07T09:14:12.708Z,50.70
2019-05-07T09:16:42.622Z,50.60
2019-05-07T09:19:12.798Z,50.50
2019-05-07T09:21:42.820Z,50.50
2019-05-07T09:24:12.345Z,50.50
2019-05-07T09:27:02.653Z,50.40
2019-05-07T09:29:52.019Z,50.40
2019-05-07T09:32:29.650Z,50.40
2019-05-07T09:34:59.555Z,50.20
2019-05-07T09:37:29.494Z,50.10
2019-05-07T09:39:58.211Z,50.10
2019-05-07T09:42:26.985Z,50.10
2019-05-07T09:44:55.660Z,50.10
2019-05-07T09:47:24.333Z,50.00
2019-05-07T09:50:03.843Z,50.10
2019-05-07T09:52:23.400Z,49.90
2019-05-07T09:54:52.435Z,50.00
2019-05-07T09:57:30.956Z,49.80
2019-05-07T09:59:52.997Z,49.90
2019-05-07T10:02:22.681Z,50.60
2019-05-07T10:04:52.748Z,50.00
2019-05-07T10:07:22.413Z,50.00
2019-05-07T10:09:52.511Z,50.00
2019-05-07T10:12:36.809Z,50.00
2019-05-07T10:15:05.829Z,50.00
2019-05-07T10:17:51.832Z,49.90
2019-05-07T10:20:22.748Z,50.00
2019-05-07T10:22:52.055Z,50.00
2019-05-07T10:25:22.388Z,49.90
2019-05-07T10:27:53.219Z,50.00
2019-05-07T10:30:21.983Z,50.10
2019-05-07T10:32:52.750Z,50.10
2019-05-07T10:35:22.955Z,50.10
2019-05-07T10:37:52.943Z,50.10
2019-05-07T10:40:22.419Z,50.00
2019-05-07T10:42:52.142Z,50.00
2019-05-07T10:45:39.088Z,50.00
2019-05-07T10:48:14.720Z,50.00
2019-05-07T10:50:45.228Z,50.00
2019-05-07T10:53:13.866Z,50.00
2019-05-07T10:55:45.452Z,50.00
2019-05-07T10:58:12.928Z,50.00
2019-05-07T11:00:42.078Z,50.00
2019-05-07T11:03:12.677Z,50.00
2019-05-07T11:05:41.871Z,50.00
2019-05-07T11:08:10.795Z,50.00
2019-05-07T11:10:41.738Z,50.00
2019-05-07T11:13:09.963Z,50.00
2019-05-07T11:15:39.481Z,49.90
2019-05-07T11:18:23.335Z,50.00
2019-05-07T11:20:53.437Z,49.90
2019-05-07T11:23:22.535Z,49.90
2019-05-07T11:25:52.701Z,49.90
2019-05-07T11:28:22.730Z,49.90
2019-05-07T11:30:51.978Z,49.90
2019-05-07T11:33:22.002Z,49.90
2019-05-07T11:35:52.816Z,49.90
2019-05-07T11:38:24.679Z,49.90
2019-05-07T11:40:51.877Z,49.80
2019-05-07T11:43:38.926Z,49.80
2019-05-07T11:46:15.331Z,49.80
2019-05-07T11:48:52.988Z,49.80
2019-05-07T11:51:28.262Z,49.80
2019-05-07T11:54:13.703Z,49.80
2019-05-07T11:56:42.512Z,49.80
2019-05-07T11:59:13.365Z,49.70
2019-05-07T12:01:47.898Z,49.80
2019-05-07T12:04:16.891Z,49.70
2019-05-07T12:06:45.543Z,49.70
2019-05-07T12:09:14.202Z,49.60
2019-05-07T12:11:42.850Z,49.60
2019-05-07T12:14:12.371Z,49.60
2019-05-07T12:16:42.665Z,49.50
2019-05-07T12:19:13.038Z,49.60
2019-05-07T12:21:42.409Z,49.50
2019-05-07T12:24:12.943Z,49.60
2019-05-07T12:26:42.648Z,49.60
2019-05-07T12:29:11.818Z,49.50
2019-05-07T12:31:58.646Z,49.50
2019-05-07T12:34:42.217Z,49.50
2019-05-07T12:37:12.275Z,49.50
2019-05-07T12:39:42.354Z,49.50
2019-05-07T12:42:12.023Z,49.50
2019-05-07T12:44:42.463Z,49.40
2019-05-07T12:47:12.020Z,49.40
2019-05-07T12:49:42.913Z,49.40
2019-05-07T12:52:22.846Z,49.30
2019-05-07T12:55:13.913Z,49.40
2019-05-07T12:57:42.604Z,49.30
2019-05-07T13:00:29.034Z,49.30
2019-05-07T13:03:35.047Z,49.30
2019-05-07T13:06:03.776Z,49.20
2019-05-07T13:08:32.965Z,49.20
2019-05-07T13:11:03.053Z,49.30
2019-05-07T13:13:32.368Z,49.20
2019-05-07T13:16:02.912Z,49.40
2019-05-07T13:18:31.549Z,49.30
2019-05-07T13:21:02.227Z,49.30
2019-05-07T13:23:31.810Z,49.30
2019-05-07T13:26:02.610Z,49.30
2019-05-07T13:28:31.409Z,49.30
2019-05-07T13:31:02.208Z,49.10
2019-05-07T13:33:31.631Z,49.20
2019-05-07T13:36:02.289Z,49.10
2019-05-07T13:38:37.930Z,49.30
2019-05-07T13:41:37.746Z,49.20
2019-05-07T13:44:28.246Z,49.20
2019-05-07T13:47:14.772Z,49.10
2019-05-07T13:49:44.207Z,49.10
2019-05-07T13:52:12.940Z,49.10
2019-05-07T13:54:42.017Z,49.10
2019-05-07T13:57:11.997Z,49.00
2019-05-07T13:59:42.460Z,49.00
2019-05-07T14:02:15.405Z,49.00
2019-05-07T14:04:43.336Z,49.00
2019-05-07T14:07:12.671Z,49.00
2019-05-07T14:09:42.160Z,49.00
2019-05-07T14:12:12.377Z,48.80
2019-05-07T14:14:42.643Z,48.90
2019-05-07T14:17:12.658Z,49.00
2019-05-07T14:19:42.309Z,48.90
2019-05-07T14:22:17.933Z,48.90
2019-05-07T14:24:42.676Z,48.70
2019-05-07T14:27:11.374Z,48.90
2019-05-07T14:29:42.294Z,48.80
2019-05-07T14:32:35.398Z,49.20
2019-05-07T14:35:12.316Z,48.90
2019-05-07T14:37:45.306Z,48.70
2019-05-07T14:40:13.964Z,48.70
2019-05-07T14:42:47.538Z,48.70
2019-05-07T14:45:16.187Z,48.70
2019-05-07T14:47:44.945Z,48.70
2019-05-07T14:50:14.220Z,48.70
2019-05-07T14:52:43.386Z,49.30
2019-05-07T14:55:12.798Z,48.80
2019-05-07T14:57:42.331Z,48.80
2019-05-07T15:00:12.640Z,48.70
2019-05-07T15:02:42.157Z,48.70
2019-05-07T15:05:11.989Z,48.50
2019-05-07T15:07:41.163Z,48.60
2019-05-07T15:10:10.088Z,48.60
2019-05-07T15:12:38.772Z,48.70
2019-05-07T15:15:07.553Z,48.50
2019-05-07T15:17:45.723Z,48.50
2019-05-07T15:20:14.363Z,48.70
2019-05-07T15:22:52.724Z,48.60
2019-05-07T15:25:22.736Z,48.50
2019-05-07T15:27:52.728Z,48.40
2019-05-07T15:30:22.562Z,48.50
2019-05-07T15:32:52.132Z,48.50
2019-05-07T15:40:42.385Z,48.40
2019-05-07T15:43:12.896Z,48.30
2019-05-07T15:45:41.539Z,48.20
2019-05-07T15:48:10.220Z,48.40
2019-05-07T15:50:38.883Z,48.30
2019-05-07T15:53:13.366Z,48.10
2019-05-07T15:55:42.093Z,48.20
2019-05-07T15:58:12.084Z,48.10
2019-05-07T16:00:42.514Z,48.10
2019-05-07T16:03:16.724Z,48.10
2019-05-07T16:05:45.403Z,48.20
2019-05-07T16:08:15.961Z,48.10
2019-05-07T16:10:44.619Z,48.00
2019-05-07T16:13:16.186Z,48.00
2019-05-07T16:15:44.841Z,48.10
2019-05-07T16:18:17.486Z,47.90
2019-05-07T16:20:46.223Z,48.20
2019-05-07T16:23:18.033Z,48.30
2019-05-07T16:25:45.667Z,48.70
2019-05-07T16:28:14.313Z,49.20
2019-05-07T16:30:42.987Z,48.50
2019-05-07T16:33:12.822Z,48.50
2019-05-07T16:35:42.562Z,48.40
2019-05-07T16:38:14.510Z,48.30
2019-05-07T16:40:42.932Z,48.40
2019-05-07T16:43:12.100Z,48.40
2019-05-07T16:45:42.481Z,48.40
2019-05-07T16:48:11.918Z,48.40
2019-05-07T16:50:41.523Z,48.40
2019-05-07T16:53:12.115Z,48.30
2019-05-07T16:55:40.589Z,48.40
2019-05-07T16:58:23.488Z,48.40
2019-05-07T17:00:55.661Z,48.40
2019-05-07T17:03:31.771Z,48.40
2019-05-07T17:06:01.770Z,48.40
2019-05-07T17:08:43.517Z,48.30
2019-05-07T17:11:12.239Z,48.20
2019-05-07T17:13:42.459Z,48.30
2019-05-07T17:16:12.323Z,48.30
2019-05-07T17:18:41.585Z,48.30
2019-05-07T17:21:12.328Z,48.20
2019-05-07T17:23:44.411Z,48.20
2019-05-07T17:26:11.761Z,48.30
2019-05-07T17:28:42.555Z,48.40
2019-05-07T17:31:12.361Z,48.40
2019-05-07T17:33:42.419Z,48.40
2019-05-07T17:36:12.239Z,48.40
2019-05-07T17:38:42.712Z,48.40
2019-05-07T17:41:19.621Z,48.40
2019-05-07T17:43:41.705Z,48.40
2019-05-07T17:46:12.211Z,48.40
2019-05-07T17:48:42.683Z,48.40
2019-05-07T17:51:33.446Z,48.40
2019-05-07T17:54:02.080Z,48.50
2019-05-07T17:56:32.048Z,48.70
2019-05-07T17:59:02.849Z,48.80
2019-05-07T18:01:52.895Z,48.90
2019-05-07T18:04:21.066Z,49.10
2019-05-07T18:06:50.198Z,49.20
2019-05-07T18:09:22.419Z,49.20
2019-05-07T18:11:52.157Z,49.40
2019-05-07T18:14:22.784Z,49.50
2019-05-07T18:17:16.228Z,49.50
2019-05-07T18:19:48.108Z,49.50
2019-05-07T18:22:16.881Z,49.50
2019-05-07T18:24:45.624Z,49.50
2019-05-07T18:27:22.288Z,49.50
2019-05-07T18:29:52.232Z,49.60
2019-05-07T18:32:21.902Z,49.60
2019-05-07T18:34:51.964Z,49.60
2019-05-07T18:37:22.763Z,49.50
2019-05-07T18:39:52.126Z,49.50
2019-05-07T18:42:22.208Z,49.40
2019-05-07T18:44:52.462Z,49.40
2019-05-07T18:47:22.373Z,49.40
2019-05-07T18:49:52.061Z,49.30
2019-05-07T18:52:22.974Z,49.30
2019-05-07T18:54:52.099Z,49.30
2019-05-07T18:57:22.255Z,49.30
2019-05-07T18:59:53.174Z,49.20
2019-05-07T19:02:22.591Z,49.20
2019-05-07T19:04:51.979Z,49.20
2019-05-07T19:07:22.824Z,49.20
2019-05-07T19:09:51.670Z,49.20
2019-05-07T19:12:22.434Z,49.20
2019-05-07T19:14:51.759Z,49.20
2019-05-07T19:17:21.915Z,49.20
2019-05-07T19:19:52.527Z,49.20
2019-05-07T19:22:22.284Z,49.20
2019-05-07T19:24:52.735Z,49.20
2019-05-07T19:27:22.096Z,49.20
2019-05-07T19:29:51.749Z,49.20
2019-05-07T19:32:22.710Z,49.40
2019-05-07T19:34:50.774Z,50.00
2019-05-07T19:37:19.444Z,50.20
2019-05-07T19:39:48.130Z,50.50
2019-05-07T19:42:16.802Z,50.60
2019-05-07T19:44:45.475Z,50.90
2019-05-07T19:47:14.159Z,51.20
2019-05-07T19:49:42.825Z,51.50
2019-05-07T19:52:12.519Z,51.60
2019-05-07T19:54:44.356Z,51.80
2019-05-07T19:57:15.531Z,51.90
2019-05-07T19:59:44.189Z,52.10
2019-05-07T20:02:15.975Z,52.10
2019-05-07T20:04:44.638Z,52.10
2019-05-07T20:07:13.307Z,52.30
2019-05-07T20:09:42.848Z,52.40
2019-05-07T20:12:11.931Z,52.40
2019-05-07T20:14:42.246Z,52.40
2019-05-07T20:17:12.314Z,52.40
2019-05-07T20:19:41.811Z,52.40
2019-05-07T20:22:12.749Z,52.40
2019-05-07T20:24:41.816Z,52.40
2019-05-07T20:27:12.503Z,52.40
2019-05-07T20:29:42.755Z,52.50
2019-05-07T20:32:11.446Z,52.60
2019-05-07T20:34:42.184Z,52.60
2019-05-07T20:37:12.735Z,52.60
2019-05-07T20:39:42.622Z,52.40
2019-05-07T20:42:12.353Z,52.70
2019-05-07T20:44:42.622Z,52.70
2019-05-07T20:47:12.687Z,52.40
2019-05-07T20:49:42.772Z,52.30
2019-05-07T20:52:12.213Z,52.30
2019-05-07T20:55:27.908Z,52.30
2019-05-07T20:57:45.876Z,52.20
2019-05-07T21:00:22.835Z,52.10
2019-05-07T21:03:12.516Z,52.00
2019-05-07T21:05:42.175Z,51.90
2019-05-07T21:08:11.969Z,51.90
2019-05-07T21:10:42.664Z,51.90
2019-05-07T21:13:26.775Z,51.90
2019-05-07T21:15:42.247Z,51.80
2019-05-07T21:18:12.335Z,51.80
2019-05-07T21:20:42.055Z,51.80
2019-05-07T21:23:12.243Z,51.90
2019-05-07T21:25:45.647Z,51.90
2019-05-07T21:28:12.380Z,51.80
2019-05-07T21:30:42.707Z,51.70
2019-05-07T21:33:12.039Z,51.70
2019-05-07T21:35:42.958Z,51.70
2019-05-07T21:38:12.660Z,51.80
2019-05-07T21:40:42.927Z,51.80
2019-05-07T21:43:14.039Z,51.90
2019-05-07T21:45:42.428Z,51.90
2019-05-07T21:48:13.525Z,51.90
2019-05-07T21:50:41.576Z,51.90
2019-05-07T21:53:19.748Z,51.90
2019-05-07T21:56:01.801Z,51.80
2019-05-07T21:58:32.900Z,51.80
2019-05-07T22:01:05.707Z,51.70
2019-05-07T22:03:35.048Z,51.60
2019-05-07T22:06:04.748Z,51.60
2019-05-07T22:08:33.399Z,51.40
2019-05-07T22:11:04.401Z,51.50
2019-05-07T22:13:32.918Z,51.50
2019-05-07T22:16:02.518Z,51.60
2019-05-07T22:18:33.991Z,51.50
2019-05-07T22:21:03.006Z,51.50
2019-05-07T22:23:32.447Z,51.60
2019-05-07T22:26:18.336Z,51.50
2019-05-07T22:28:33.103Z,51.40
2019-05-07T22:31:12.726Z,51.40
2019-05-07T22:33:49.396Z,51.50
2019-05-07T22:36:18.301Z,51.50
2019-05-07T22:38:46.948Z,51.50
2019-05-07T22:41:15.602Z,51.40
2019-05-07T22:43:44.291Z,51.40
2019-05-07T22:46:13.039Z,51.40
2019-05-07T22:48:41.942Z,51.40
2019-05-07T22:51:12.219Z,51.40
2019-05-07T22:53:41.428Z,51.40
2019-05-07T22:56:12.261Z,51.40
2019-05-07T22:58:45.178Z,51.40
2019-05-07T23:01:13.863Z,51.40
2019-05-07T23:03:43.080Z,51.40
2019-05-07T23:06:12.394Z,51.40
2019-05-07T23:08:42.523Z,51.30
2019-05-07T23:11:12.332Z,51.40
2019-05-07T23:13:42.657Z,51.40
2019-05-07T23:16:12.718Z,51.40
2019-05-07T23:18:42.916Z,51.40
2019-05-07T23:21:11.981Z,51.40
2019-05-07T23:23:42.187Z,51.40
2019-05-07T23:26:12.251Z,51.40
2019-05-07T23:28:41.947Z,51.30
2019-05-07T23:31:12.142Z,51.40
2019-05-07T23:33:41.379Z,51.40
2019-05-07T23:36:10.031Z,51.40
2019-05-07T23:38:38.692Z,51.40
2019-05-07T23:41:35.354Z,51.40
2019-05-07T23:44:17.866Z,51.30
2019-05-07T23:46:46.599Z,51.30
2019-05-07T23:49:15.255Z,51.30
2019-05-07T23:51:43.918Z,51.40
2019-05-07T23:54:13.311Z,51.40
2019-05-07T23:56:42.756Z,51.30
2019-05-07T23:59:14.462Z,51.30
